KCHO Airport (Charlottesville-Albemarle) Information

FAA: CHO - ICAO: KCHO

KCHO Airport Location

State Virginia
County Albemarle
City Charlottesville
KCHO Airport is 7 miles north of Charlottesville, VA.
Latitude 38-08-22.7140N
Longitude 078-27-08.4390W
Elevation 640ft

KCHO Airport METARs

METAR KCHO 020053Z 23003KT 6SM HZ BKN024 01/M02 A3029 RMK AO2 SLP260 T00111017
Altimeter 30.29"
Temperature 1.1°C (34.0°F)
Wind 230° at 3KT
Clouds broken at 2,400ft
Visibility 6.0mi
Time observed: 2023-02-02T00:53:00Z

KCHO Airport Details

Status Operational
Activation N/A
Ownership Public
Usage Public
Chart WASHINGTON
ATC on-site Yes
Beacon schedule sunset-sunrise
Beacon color clear green

KCHO Airport Contacts

Owner CHRLTSVL-ALBMRL ARPT AUTH
Owner address 100 BOWEN LOOP, SUITE 200, CHARLOTTESVILLE, VA 22911
Owner phone 434-973-8341
Manager AARON LORSON
Manager address PO BOX 7, BRIDGEWATER, VA 22812
Manager phone 540-828-6070

KCHO Airport (Charlottesville-Albemarle) Radio Frequencies

KCHO (Airport) Radio Frequencies

UNICOM 122.95
Common traffic advisory frequency (CTAF) 124.5